Time;durP1;ratioP1;P1;durP2;ratioP2;P2;SDS_P1;SDS_P2;PMS_P1;PMS_P2;Temp;Humidity;BMP_temperature;BMP_pressure;BME280_temperature;BME280_humidity;BME280_pressure;Samples;Min_cycle;Max_cycle;Signal;HPM_P1;HPM_P2
2022/04/28 00:01:58;;;;;;;12.13;4.37;;;4.20;99.90;;;;;;5033773;28;20022;-73
2022/04/28 00:04:24;;;;;;;11.17;3.87;;;4.10;99.90;;;;;;5033242;28;20021;-73
2022/04/28 00:06:49;;;;;;;9.37;3.90;;;4.10;99.90;;;;;;5033097;28;20029;-74
2022/04/28 00:09:15;;;;;;;9.90;3.97;;;4.20;99.90;;;;;;5033365;28;20028;-74
2022/04/28 00:11:41;;;;;;;7.50;3.80;;;4.10;99.90;;;;;;5032862;28;20083;-74
2022/04/28 00:14:10;;;;;;;11.10;4.43;;;4.10;99.90;;;;;;5032692;28;20655;-74
2022/04/28 00:16:36;;;;;;;8.07;3.60;;;4.10;99.90;;;;;;5033313;28;20021;-74
2022/04/28 00:19:04;;;;;;;8.17;3.90;;;4.00;99.90;;;;;;5068176;22;20501;-80
2022/04/28 00:21:30;;;;;;;7.57;3.70;;;4.00;99.90;;;;;;5061372;28;20037;-81
2022/04/28 00:23:55;;;;;;;10.63;4.13;;;4.00;99.90;;;;;;5057054;28;20017;-81
2022/04/28 00:26:21;;;;;;;8.50;3.67;;;4.00;99.90;;;;;;5059906;28;20119;-80
2022/04/28 00:28:47;;;;;;;11.00;4.60;;;4.10;99.90;;;;;;5055462;28;20554;-80
2022/04/28 00:31:13;;;;;;;4.93;4.07;;;4.10;99.90;;;;;;5052830;28;20021;-80
2022/04/28 00:33:42;;;;;;;8.73;3.60;;;4.20;99.90;;;;;;5053066;28;20020;-80
2022/04/28 00:36:09;;;;;;;8.73;3.97;;;4.10;99.90;;;;;;5051894;28;20086;-80
2022/04/28 00:38:35;;;;;;;10.53;3.70;;;4.10;99.90;;;;;;5051416;28;20457;-80
2022/04/28 00:41:01;;;;;;;8.13;3.90;;;4.00;99.90;;;;;;5052689;28;20079;-81
2022/04/28 00:43:31;;;;;;;7.40;3.67;;;4.00;99.90;;;;;;5051180;28;20044;-80
2022/04/28 00:45:57;;;;;;;8.10;3.20;;;4.00;99.90;;;;;;5052608;28;20028;-80
2022/04/28 00:51:08;;;;;;;13.77;4.20;;;3.90;99.90;;;;;;5048017;28;20031;-81
2022/04/28 00:53:40;;;;;;;8.07;3.50;;;3.90;99.90;;;;;;5044703;28;20017;-80
2022/04/28 00:56:06;;;;;;;10.90;4.93;;;3.90;99.90;;;;;;5051040;28;20025;-80
2022/04/28 00:58:32;;;;;;;6.03;3.50;;;3.90;99.90;;;;;;5052303;28;20060;-80
2022/04/28 01:00:58;;;;;;;9.83;3.77;;;3.90;99.90;;;;;;5052860;28;20064;-81
2022/04/28 01:03:24;;;;;;;6.83;4.10;;;4.10;99.90;;;;;;5050558;28;20059;-80
2022/04/28 01:05:50;;;;;;;13.07;4.00;;;4.10;99.90;;;;;;5052031;28;20028;-80
2022/04/28 01:08:16;;;;;;;9.57;4.30;;;4.10;99.90;;;;;;5052342;28;20017;-80
2022/04/28 01:10:41;;;;;;;8.87;3.90;;;4.10;99.90;;;;;;5051655;28;20071;-80
2022/04/28 01:13:07;;;;;;;6.73;3.60;;;4.20;99.90;;;;;;5051977;28;20389;-80
2022/04/28 01:15:47;;;;;;;6.00;4.50;;;4.10;99.90;;;;;;5051775;28;20103;-80
2022/04/28 01:18:13;;;;;;;8.90;4.13;;;4.10;99.90;;;;;;5064041;22;20009;-73
2022/04/28 01:20:40;;;;;;;8.03;3.77;;;4.10;99.90;;;;;;5064840;28;20032;-74
2022/04/28 01:23:06;;;;;;;8.53;3.97;;;4.00;99.90;;;;;;5072150;28;20029;-74
2022/04/28 01:25:32;;;;;;;10.50;4.40;;;4.00;99.90;;;;;;5068860;28;20053;-74
2022/04/28 01:27:58;;;;;;;10.00;3.67;;;3.90;99.90;;;;;;5071525;28;20090;-74
2022/04/28 01:30:24;;;;;;;8.17;3.63;;;4.00;99.90;;;;;;5062105;28;20024;-74
2022/04/28 01:32:54;;;;;;;12.07;4.17;;;4.00;99.90;;;;;;5058326;28;20033;-73
2022/04/28 01:35:20;;;;;;;7.23;3.67;;;4.00;99.90;;;;;;5064077;28;20047;-73
2022/04/28 01:37:46;;;;;;;15.23;4.00;;;3.90;99.90;;;;;;5061390;28;20621;-73
2022/04/28 01:40:12;;;;;;;8.13;3.93;;;3.90;99.90;;;;;;5059062;28;20036;-74
2022/04/28 01:42:41;;;;;;;8.30;3.90;;;3.80;99.90;;;;;;5064549;28;20028;-75
2022/04/28 01:45:08;;;;;;;7.40;3.63;;;3.80;99.90;;;;;;5061344;28;20024;-75
2022/04/28 01:47:35;;;;;;;8.47;3.70;;;3.80;99.90;;;;;;5060203;28;20102;-75
2022/04/28 01:50:04;;;;;;;10.57;4.10;;;3.80;99.90;;;;;;5064297;28;20020;-74
2022/04/28 01:55:15;;;;;;;4.93;4.20;;;4.00;99.90;;;;;;5062734;28;20024;-74
2022/04/28 01:57:41;;;;;;;10.50;3.60;;;4.00;99.90;;;;;;5060511;28;20486;-75
2022/04/28 02:00:08;;;;;;;6.40;3.57;;;4.00;99.90;;;;;;5063934;28;20095;-75
2022/04/28 02:02:35;;;;;;;8.17;4.00;;;3.90;99.90;;;;;;5055453;28;20017;-75
2022/04/28 02:05:05;;;;;;;13.73;4.70;;;3.80;99.90;;;;;;5061397;28;20056;-74
2022/04/28 02:07:31;;;;;;;9.37;3.97;;;3.80;99.90;;;;;;5059202;28;20021;-75
2022/04/28 02:09:58;;;;;;;14.67;4.73;;;3.70;99.90;;;;;;5062472;28;20492;-75
2022/04/28 02:12:24;;;;;;;7.43;3.47;;;3.70;99.90;;;;;;5060257;28;20539;-74
2022/04/28 02:14:51;;;;;;;8.00;3.47;;;3.70;99.90;;;;;;5058581;28;20497;-74
2022/04/28 02:17:21;;;;;;;8.47;3.90;;;3.70;99.90;;;;;;5063427;28;20016;-74
2022/04/28 02:19:47;;;;;;;9.27;4.00;;;3.70;99.90;;;;;;5081499;23;20541;-81
2022/04/28 02:22:13;;;;;;;10.93;3.70;;;3.70;99.90;;;;;;5071363;28;20464;-80
2022/04/28 02:24:39;;;;;;;8.23;3.40;;;3.80;99.90;;;;;;5070911;28;20021;-81
2022/04/28 02:27:06;;;;;;;10.37;3.83;;;3.80;99.90;;;;;;5070035;28;20107;-80
2022/04/28 02:29:32;;;;;;;7.67;3.50;;;3.80;99.90;;;;;;5057135;28;20029;-81
2022/04/28 02:31:57;;;;;;;6.80;3.97;;;3.70;99.90;;;;;;5051248;28;20399;-81
2022/04/28 02:34:23;;;;;;;5.70;3.40;;;3.70;99.90;;;;;;5050882;28;20079;-80
2022/04/28 02:36:49;;;;;;;11.63;3.97;;;3.70;99.90;;;;;;5050049;28;20465;-80
2022/04/28 02:39:15;;;;;;;12.97;3.90;;;3.70;99.90;;;;;;5050742;28;20033;-80
2022/04/28 02:41:45;;;;;;;8.97;4.30;;;3.70;99.90;;;;;;5050868;28;20075;-80
2022/04/28 02:44:12;;;;;;;12.03;4.53;;;3.70;99.90;;;;;;5049967;28;20021;-80
2022/04/28 02:46:38;;;;;;;7.87;3.80;;;3.70;99.90;;;;;;5051231;28;20017;-81
2022/04/28 02:49:05;;;;;;;11.73;4.13;;;3.70;99.90;;;;;;5049692;28;20025;-81
2022/04/28 02:51:31;;;;;;;9.90;4.10;;;3.70;99.90;;;;;;5050762;28;20024;-80
2022/04/28 02:53:56;;;;;;;8.77;3.87;;;3.70;99.90;;;;;;5050552;28;20036;-81
2022/04/28 02:56:22;;;;;;;9.10;3.90;;;3.70;99.90;;;;;;5050960;28;20025;-81
2022/04/28 02:58:50;;;;;;;6.53;3.70;;;3.70;99.90;;;;;;5050678;28;20056;-81
2022/04/28 03:01:16;;;;;;;10.00;4.20;;;3.80;99.90;;;;;;5051100;28;20045;-81
2022/04/28 03:03:42;;;;;;;6.50;3.77;;;3.80;99.90;;;;;;5051190;28;20078;-81
2022/04/28 03:11:36;;;;;;;10.47;4.63;;;3.70;99.90;;;;;;5050987;28;20373;-80
2022/04/28 03:14:02;;;;;;;10.00;4.60;;;3.80;99.90;;;;;;5049524;28;20029;-81
2022/04/28 03:16:28;;;;;;;13.07;4.23;;;3.80;99.90;;;;;;5050958;28;20108;-81
2022/04/28 03:18:54;;;;;;;6.27;3.60;;;3.80;99.90;;;;;;5075697;22;20127;-74
2022/04/28 03:21:20;;;;;;;13.73;4.50;;;3.80;99.90;;;;;;5057694;28;20087;-74
2022/04/28 03:23:46;;;;;;;15.33;4.67;;;3.90;99.90;;;;;;5057997;28;20021;-74
2022/04/28 03:26:12;;;;;;;9.07;4.30;;;4.00;99.90;;;;;;5052748;28;20063;-74
2022/04/28 03:28:38;;;;;;;11.93;4.10;;;4.00;99.90;;;;;;5055211;28;20052;-74
2022/04/28 03:31:06;;;;;;;12.47;4.70;;;4.00;99.90;;;;;;5057271;28;20539;-74
2022/04/28 03:33:32;;;;;;;9.63;4.20;;;4.10;99.90;;;;;;5057768;28;20550;-74
2022/04/28 03:35:58;;;;;;;9.83;3.87;;;4.00;99.90;;;;;;5057095;28;20028;-74
2022/04/28 03:38:24;;;;;;;7.37;4.00;;;4.00;99.90;;;;;;5057441;28;20405;-74
2022/04/28 03:40:50;;;;;;;9.80;4.03;;;4.00;99.90;;;;;;5056929;28;20082;-74
2022/04/28 03:43:17;;;;;;;9.90;4.50;;;4.00;99.90;;;;;;5057639;28;20470;-74
2022/04/28 03:45:43;;;;;;;8.57;4.27;;;4.00;99.90;;;;;;5057175;28;20021;-74
2022/04/28 03:48:09;;;;;;;9.13;4.10;;;4.00;99.90;;;;;;5054499;28;20028;-74
2022/04/28 03:50:37;;;;;;;8.20;4.23;;;4.00;99.90;;;;;;5054710;28;20099;-74
2022/04/28 03:53:04;;;;;;;9.73;4.60;;;4.00;99.90;;;;;;5055557;28;20072;-74
2022/04/28 03:55:30;;;;;;;13.27;4.57;;;4.00;99.90;;;;;;5057239;28;20051;-74
2022/04/28 03:57:56;;;;;;;11.43;4.70;;;4.00;99.90;;;;;;5057479;28;20478;-73
2022/04/28 04:00:22;;;;;;;13.20;5.90;;;4.10;99.90;;;;;;5057517;28;20123;-74
2022/04/28 04:02:48;;;;;;;12.17;4.40;;;4.10;99.90;;;;;;5055246;28;20024;-74
2022/04/28 04:05:15;;;;;;;9.57;4.27;;;4.20;99.90;;;;;;5052465;28;20481;-74
2022/04/28 04:07:42;;;;;;;9.57;4.83;;;4.10;99.90;;;;;;5056012;28;20020;-74
2022/04/28 04:10:13;;;;;;;9.97;4.67;;;4.00;99.90;;;;;;5056176;28;20056;-74
2022/04/28 04:12:39;;;;;;;10.87;4.37;;;4.00;99.90;;;;;;5054590;28;20028;-74
2022/04/28 04:15:06;;;;;;;8.83;4.50;;;4.00;99.90;;;;;;5054828;28;20576;-73
2022/04/28 04:17:42;;;;;;;11.67;4.57;;;3.90;99.90;;;;;;5055506;28;20021;-74
2022/04/28 04:20:08;;;;;;;12.23;4.57;;;4.00;99.90;;;;;;5068687;22;20061;-81
2022/04/28 04:22:35;;;;;;;10.03;4.47;;;3.90;99.90;;;;;;5031117;28;20521;-81
2022/04/28 04:25:03;;;;;;;10.87;4.60;;;4.00;99.90;;;;;;5060329;28;20053;-80
2022/04/28 04:27:30;;;;;;;9.67;4.57;;;4.00;99.90;;;;;;5030723;28;20389;-80
2022/04/28 04:29:55;;;;;;;10.43;5.57;;;4.10;99.90;;;;;;5042722;28;20017;-80
2022/04/28 04:32:25;;;;;;;8.47;4.43;;;4.10;99.90;;;;;;5048490;28;20033;-80
2022/04/28 04:34:51;;;;;;;7.87;4.50;;;4.10;99.90;;;;;;5050011;28;20017;-80
2022/04/28 04:37:18;;;;;;;9.43;4.60;;;4.10;99.90;;;;;;5053043;28;20017;-81
2022/04/28 04:39:44;;;;;;;10.60;4.70;;;4.00;99.90;;;;;;5053464;28;20025;-80
2022/04/28 04:42:10;;;;;;;13.43;4.73;;;4.00;99.90;;;;;;5053336;28;20025;-80
2022/04/28 04:44:36;;;;;;;7.93;4.30;;;4.00;99.90;;;;;;5053758;28;20024;-80
2022/04/28 04:47:02;;;;;;;10.80;4.23;;;4.00;99.90;;;;;;5053337;28;20021;-80
2022/04/28 04:49:28;;;;;;;10.43;4.40;;;4.10;99.90;;;;;;5053330;28;20017;-79
2022/04/28 04:51:53;;;;;;;11.90;4.30;;;4.20;99.90;;;;;;5053331;28;20109;-80
2022/04/28 04:54:22;;;;;;;8.90;4.40;;;4.30;99.90;;;;;;5052934;28;20021;-80
2022/04/28 04:56:48;;;;;;;9.67;4.10;;;4.30;99.90;;;;;;5052789;28;20104;-80
2022/04/28 04:59:14;;;;;;;5.97;4.23;;;4.30;99.90;;;;;;5053056;28;20100;-80
2022/04/28 05:01:39;;;;;;;15.60;4.93;;;4.40;99.90;;;;;;5052473;28;20068;-80
2022/04/28 05:04:06;;;;;;;10.17;4.43;;;4.50;99.90;;;;;;5052500;28;20082;-80
2022/04/28 05:06:32;;;;;;;14.90;4.87;;;4.60;99.90;;;;;;5051716;28;20028;-80
2022/04/28 05:08:58;;;;;;;11.80;4.43;;;4.60;99.90;;;;;;5052960;28;20013;-80
2022/04/28 05:11:23;;;;;;;11.63;4.30;;;4.70;99.90;;;;;;5051456;28;20032;-80
2022/04/28 05:13:49;;;;;;;12.77;4.93;;;4.80;99.90;;;;;;5053044;28;20030;-80
2022/04/28 05:16:15;;;;;;;12.47;4.20;;;4.90;99.90;;;;;;5052590;28;20482;-80
2022/04/28 05:18:41;;;;;;;9.53;4.50;;;4.90;99.90;;;;;;5083653;22;20075;-74
2022/04/28 05:21:06;;;;;;;12.47;4.73;;;5.10;99.90;;;;;;5086398;28;20043;-74
2022/04/28 05:23:32;;;;;;;15.57;5.10;;;5.20;99.90;;;;;;5092609;28;20034;-74
2022/04/28 05:25:58;;;;;;;11.27;5.13;;;5.30;99.90;;;;;;5088991;28;20035;-74
2022/04/28 05:28:30;;;;;;;8.70;4.30;;;5.40;99.90;;;;;;5092907;28;20866;-74
2022/04/28 05:30:56;;;;;;;;;;;5.50;99.90;;;;;;5080728;28;20039;-74
2022/04/28 05:33:22;;;;;;;9.37;4.17;;;5.60;99.90;;;;;;5082107;28;19912;-74
2022/04/28 05:35:48;;;;;;;10.83;4.07;;;5.80;99.90;;;;;;5084874;28;20106;-74
2022/04/28 05:38:14;;;;;;;9.37;3.87;;;5.90;99.90;;;;;;5079201;28;20107;-74
2022/04/28 05:40:41;;;;;;;15.50;4.23;;;6.10;99.90;;;;;;5081566;28;20480;-74
2022/04/28 05:45:53;;;;;;;10.77;4.03;;;6.40;99.90;;;;;;5080201;28;20027;-74
2022/04/28 05:48:20;;;;;;;11.60;3.90;;;6.50;99.90;;;;;;5084810;28;20024;-74
2022/04/28 05:50:46;;;;;;;9.77;4.37;;;6.70;99.90;;;;;;5079744;28;20427;-74
2022/04/28 05:53:12;;;;;;;10.13;4.68;;;6.80;99.90;;;;;;5080595;28;20052;-74
2022/04/28 05:55:38;;;;;;;8.57;4.00;;;6.90;99.90;;;;;;5084158;28;20059;-74
2022/04/28 05:58:04;;;;;;;11.50;4.65;;;7.00;99.90;;;;;;5079752;28;20023;-74
2022/04/28 06:00:32;;;;;;;10.80;3.47;;;7.10;99.90;;;;;;5080279;28;20119;-74
2022/04/28 06:02:58;;;;;;;6.95;4.05;;;7.40;99.90;;;;;;5083907;28;20081;-74
2022/04/28 06:05:25;;;;;;;6.40;3.75;;;7.40;99.90;;;;;;5079565;28;20056;-74
2022/04/28 06:07:51;;;;;;;8.95;4.03;;;7.50;99.90;;;;;;5084269;28;20044;-74
2022/04/28 06:10:17;;;;;;;9.82;4.05;;;7.50;99.90;;;;;;5078666;28;20063;-74
2022/04/28 06:12:43;;;;;;;9.30;4.15;;;7.50;99.90;;;;;;5083476;28;20066;-73
2022/04/28 06:15:10;;;;;;;7.05;3.78;;;7.60;99.90;;;;;;5081550;28;20594;-73
2022/04/28 06:17:36;;;;;;;10.70;4.03;;;7.70;99.90;;;;;;5079139;28;20025;-74
2022/04/28 06:20:02;;;;;;;9.82;3.75;;;7.80;99.90;;;;;;5090058;22;20372;-81
2022/04/28 06:22:28;;;;;;;10.32;4.03;;;7.80;99.90;;;;;;5066842;28;20066;-81
2022/04/28 06:24:55;;;;;;;15.38;4.55;;;7.80;99.90;;;;;;5062563;28;20025;-81
2022/04/28 06:27:22;;;;;;;9.25;3.90;;;7.80;99.90;;;;;;5072225;28;20756;-81
2022/04/28 06:29:49;;;;;;;7.70;4.47;;;7.90;99.90;;;;;;5069977;28;20020;-81
2022/04/28 06:32:19;;;;;;;7.75;4.13;;;7.90;99.90;;;;;;5070942;28;20119;-81
2022/04/28 06:34:45;;;;;;;7.30;3.95;;;8.00;99.90;;;;;;5069727;28;20032;-80
2022/04/28 06:37:11;;;;;;;9.95;4.40;;;8.10;99.90;;;;;;5070683;28;20028;-81
2022/04/28 06:39:37;;;;;;;7.05;4.20;;;8.20;99.90;;;;;;5070407;28;20016;-82
2022/04/28 06:42:04;;;;;;;8.55;4.45;;;8.20;99.90;;;;;;5071192;28;20082;-81
2022/04/28 06:44:30;;;;;;;8.07;4.35;;;8.40;99.90;;;;;;5070420;28;20021;-80
2022/04/28 06:46:55;;;;;;;10.43;4.00;;;8.50;99.90;;;;;;5070337;28;20111;-80
2022/04/28 06:49:21;;;;;;;10.35;3.85;;;8.50;99.90;;;;;;5070995;28;20021;-81
2022/04/28 06:51:47;;;;;;;8.38;4.20;;;8.60;99.90;;;;;;5070654;28;20020;-80
2022/04/28 06:54:13;;;;;;;10.52;5.47;;;8.70;99.90;;;;;;5060383;28;20028;-80
2022/04/28 06:56:39;;;;;;;12.38;6.10;;;8.80;99.90;;;;;;5070009;28;20494;-81
2022/04/28 06:59:05;;;;;;;15.70;7.97;;;8.90;99.90;;;;;;5070518;28;20016;-81
2022/04/28 07:01:31;;;;;;;13.35;7.72;;;9.00;99.90;;;;;;5070241;28;20040;-80
2022/04/28 07:03:57;;;;;;;16.20;7.85;;;9.00;99.90;;;;;;5070225;28;20020;-81
2022/04/28 07:06:23;;;;;;;8.23;5.68;;;9.20;99.90;;;;;;5059706;28;20055;-82
2022/04/28 07:08:49;;;;;;;21.40;7.30;;;9.30;99.90;;;;;;5047396;28;20039;-82
2022/04/28 07:11:15;;;;;;;14.45;6.07;;;9.30;99.90;;;;;;5066484;28;20029;-82
2022/04/28 07:13:41;;;;;;;11.50;5.88;;;9.50;99.90;;;;;;5061905;28;20455;-83
2022/04/28 07:16:07;;;;;;;9.75;5.70;;;9.50;99.90;;;;;;5069595;28;20052;-83
2022/04/28 07:18:33;;;;;;;13.27;5.65;;;9.50;99.90;;;;;;5078886;23;20005;-73
2022/04/28 07:21:05;;;;;;;11.82;4.78;;;9.60;99.90;;;;;;5065760;28;20082;-73
2022/04/28 07:23:31;;;;;;;7.88;3.88;;;9.80;99.90;;;;;;5070835;28;20082;-74
2022/04/28 07:25:57;;;;;;;7.55;3.95;;;9.90;99.90;;;;;;5068342;28;20481;-74
2022/04/28 07:28:23;;;;;;;8.80;4.50;;;10.10;99.90;;;;;;5069030;28;20048;-74
2022/04/28 07:30:49;;;;;;;13.32;4.45;;;10.20;99.90;;;;;;5050141;28;20028;-74
2022/04/28 07:33:14;;;;;;;13.48;4.60;;;10.30;99.90;;;;;;5050922;28;20029;-74
2022/04/28 07:35:40;;;;;;;7.05;4.13;;;10.40;99.90;;;;;;5050725;28;20064;-73
2022/04/28 07:38:08;;;;;;;12.55;4.88;;;10.40;99.90;;;;;;5031993;28;20467;-74
2022/04/28 07:40:36;;;;;;;5.50;3.80;;;10.50;99.90;;;;;;5052450;28;20025;-73
2022/04/28 07:43:02;;;;;;;9.90;3.95;;;10.70;99.90;;;;;;5055630;28;20029;-73
2022/04/28 07:45:28;;;;;;;12.70;4.25;;;10.80;99.90;;;;;;5050431;28;20135;-73
2022/04/28 07:47:54;;;;;;;10.98;4.43;;;10.80;99.90;;;;;;5050786;28;20025;-73
2022/04/28 07:50:21;;;;;;;9.20;4.20;;;10.90;99.90;;;;;;5050061;28;20017;-74
2022/04/28 07:52:47;;;;;;;7.13;4.07;;;11.10;99.90;;;;;;5057663;28;20036;-73
2022/04/28 07:55:14;;;;;;;12.50;4.75;;;11.30;99.70;;;;;;5050968;28;20138;-73
2022/04/28 07:57:41;;;;;;;8.48;4.15;;;11.20;99.90;;;;;;5050370;28;20039;-73
2022/04/28 08:00:09;;;;;;;15.60;5.32;;;11.40;99.50;;;;;;5041875;28;20075;-72
2022/04/28 08:02:38;;;;;;;10.73;3.75;;;11.60;99.00;;;;;;5049190;28;20124;-73
2022/04/28 08:05:05;;;;;;;8.98;3.60;;;11.50;99.90;;;;;;5049548;28;20382;-74
2022/04/28 08:07:33;;;;;;;17.63;4.30;;;11.80;99.90;;;;;;5047763;28;20021;-73
2022/04/28 08:09:59;;;;;;;10.85;4.65;;;11.80;98.40;;;;;;5049516;28;20404;-74
2022/04/28 08:12:25;;;;;;;13.32;3.95;;;12.00;98.90;;;;;;5050179;28;20107;-73
2022/04/28 08:14:51;;;;;;;9.60;4.55;;;11.90;99.00;;;;;;5053481;28;20037;-73
2022/04/28 08:17:17;;;;;;;9.95;5.13;;;11.90;97.20;;;;;;5053122;28;20406;-73
2022/04/28 08:19:43;;;;;;;9.40;4.00;;;12.00;97.80;;;;;;5084749;22;20044;-86
2022/04/28 08:22:09;;;;;;;7.70;3.67;;;12.00;97.00;;;;;;5075776;28;20044;-85
2022/04/28 08:24:35;;;;;;;7.80;4.18;;;12.10;97.40;;;;;;5080847;28;20035;-86
2022/04/28 08:27:01;;;;;;;9.68;4.32;;;12.10;96.20;;;;;;5072469;28;20083;-85
2022/04/28 08:29:26;;;;;;;11.65;4.40;;;12.20;95.60;;;;;;5073586;28;20400;-85
2022/04/28 08:31:52;;;;;;;6.72;3.45;;;12.30;95.90;;;;;;5079332;28;20021;-85
2022/04/28 08:34:19;;;;;;;8.75;4.05;;;12.10;96.30;;;;;;5088707;28;20456;-86
2022/04/28 08:36:46;;;;;;;7.95;4.45;;;12.40;94.60;;;;;;5073945;28;20032;-86
2022/04/28 08:39:12;;;;;;;10.73;4.55;;;12.60;95.10;;;;;;5080615;28;20037;-86
2022/04/28 08:41:44;;;;;;;8.02;3.88;;;12.30;94.60;;;;;;5071947;28;20043;-86
2022/04/28 08:44:16;;;;;;;11.52;4.15;;;12.20;96.20;;;;;;5073110;28;20115;-86
2022/04/28 08:46:52;;;;;;;9.32;4.07;;;12.50;94.40;;;;;;5078122;28;20114;-85
2022/04/28 08:49:29;;;;;;;12.25;5.65;;;12.90;93.80;;;;;;5081858;28;20477;-85
2022/04/28 08:51:56;;;;;;;9.63;3.90;;;13.30;94.50;;;;;;5079941;28;20434;-86
2022/04/28 08:54:25;;;;;;;5.20;3.33;;;13.40;92.90;;;;;;5073908;28;20059;-85
2022/04/28 08:56:53;;;;;;;12.60;4.43;;;13.40;91.80;;;;;;5073922;28;20025;-86
2022/04/28 08:59:22;;;;;;;9.43;4.35;;;13.50;93.20;;;;;;5077115;28;20038;-86
2022/04/28 09:01:50;;;;;;;9.30;4.00;;;13.70;91.30;;;;;;5083299;28;20035;-86
2022/04/28 09:04:17;;;;;;;8.48;4.03;;;13.30;91.90;;;;;;5074442;28;20103;-86
2022/04/28 09:06:44;;;;;;;9.93;4.00;;;13.30;91.40;;;;;;5074486;28;20070;-86
2022/04/28 09:09:15;;;;;;;8.95;4.32;;;13.30;92.10;;;;;;5076816;28;20021;-86
2022/04/28 09:11:42;;;;;;;9.37;4.60;;;13.20;92.30;;;;;;5080407;28;20021;-85
2022/04/28 09:14:13;;;;;;;10.27;4.28;;;13.60;91.60;;;;;;5085666;28;20047;-85
2022/04/28 09:16:50;;;;;;;7.95;3.75;;;13.90;92.70;;;;;;5075822;28;20028;-85
2022/04/28 09:19:25;;;;;;;10.05;4.60;;;14.40;91.30;;;;;;5103501;23;20052;-73
2022/04/28 09:21:55;;;;;;;8.48;4.35;;;14.60;89.40;;;;;;5092438;28;20036;-73
2022/04/28 09:24:23;;;;;;;9.15;4.13;;;14.40;86.80;;;;;;5089081;28;20031;-73
2022/04/28 09:26:50;;;;;;;7.68;4.18;;;14.10;87.80;;;;;;5088685;28;20055;-73
2022/04/28 09:29:18;;;;;;;10.90;4.65;;;14.00;88.70;;;;;;5089899;28;20103;-73
2022/04/28 09:31:45;;;;;;;10.18;4.40;;;14.10;92.00;;;;;;5073460;28;20016;-73
2022/04/28 09:34:14;;;;;;;10.85;4.43;;;14.60;87.50;;;;;;5084863;28;20055;-73
2022/04/28 09:36:41;;;;;;;9.40;4.07;;;15.10;85.50;;;;;;5076046;28;20028;-73
2022/04/28 09:39:08;;;;;;;8.23;4.53;;;15.20;81.70;;;;;;5081859;28;20070;-73
2022/04/28 09:44:20;;;;;;;8.15;4.60;;;15.00;83.60;;;;;;5077691;28;20457;-73
2022/04/28 09:46:47;;;;;;;9.25;4.50;;;14.70;83.60;;;;;;5079470;28;20461;-73
2022/04/28 09:49:21;;;;;;;8.38;4.70;;;14.90;85.40;;;;;;5080676;28;20469;-73
2022/04/28 09:51:47;;;;;;;13.82;4.85;;;15.50;86.60;;;;;;5084090;28;20089;-74
2022/04/28 09:54:17;;;;;;;10.60;4.25;;;15.20;80.70;;;;;;5079385;28;20466;-73
2022/04/28 09:56:44;;;;;;;6.75;4.95;;;14.90;82.80;;;;;;5082543;28;20595;-73
2022/04/28 09:59:12;;;;;;;5.20;3.80;;;15.30;82.90;;;;;;5081604;28;20422;-73
2022/04/28 10:01:39;;;;;;;9.00;4.22;;;15.50;82.40;;;;;;5078846;28;20035;-73
2022/04/28 10:04:07;;;;;;;10.35;5.53;;;15.80;78.70;;;;;;5079280;28;20012;-74
2022/04/28 10:06:38;;;;;;;9.25;4.38;;;15.70;78.90;;;;;;5080620;28;20366;-73
2022/04/28 10:09:09;;;;;;;9.57;4.15;;;15.90;77.00;;;;;;5084232;28;20055;-73
2022/04/28 10:11:37;;;;;;;10.95;4.85;;;16.20;74.80;;;;;;5079717;28;20025;-74
2022/04/28 10:14:03;;;;;;;8.18;4.72;;;15.90;74.50;;;;;;5078010;28;20025;-74
2022/04/28 10:16:29;;;;;;;10.55;4.45;;;16.10;75.50;;;;;;5078945;28;20054;-74
2022/04/28 10:19:31;;;;;;;7.97;4.63;;;15.70;76.40;;;;;;5103018;22;20088;-84
2022/04/28 10:22:03;;;;;;;7.75;4.15;;;15.50;77.10;;;;;;5074796;28;20143;-83
2022/04/28 10:33:10;;;;;;;9.18;4.13;;;16.60;74.20;;;;;;5055972;28;20935;-83
2022/04/28 10:35:45;;;;;;;8.10;4.78;;;17.00;74.30;;;;;;5066427;28;20036;-84
2022/04/28 10:38:23;;;;;;;9.15;4.47;;;17.50;68.10;;;;;;5067807;28;20028;-83
2022/04/28 10:40:59;;;;;;;12.13;4.57;;;17.00;69.30;;;;;;5062645;28;20033;-83
2022/04/28 10:43:34;;;;;;;10.82;4.43;;;17.70;67.80;;;;;;5070041;28;20472;-83
2022/04/28 10:46:09;;;;;;;5.65;4.05;;;18.30;70.20;;;;;;5067902;28;20025;-84
2022/04/28 10:48:38;;;;;;;9.65;4.32;;;18.90;63.60;;;;;;5067786;28;20020;-83
2022/04/28 10:51:06;;;;;;;5.25;4.07;;;18.90;62.90;;;;;;5065733;28;20086;-84
2022/04/28 10:53:33;;;;;;;8.27;4.35;;;19.20;60.50;;;;;;5061399;28;20021;-83
2022/04/28 10:56:08;;;;;;;12.65;4.30;;;19.80;59.80;;;;;;5065810;28;20040;-83
2022/04/28 10:58:35;;;;;;;8.13;3.83;;;20.20;59.20;;;;;;5068546;28;20029;-83
2022/04/28 11:01:01;;;;;;;9.10;4.47;;;20.80;58.20;;;;;;5070166;28;20048;-84
2022/04/28 11:03:51;;;;;;;8.63;4.15;;;20.90;52.20;;;;;;5069511;28;20469;-83
2022/04/28 11:06:38;;;;;;;9.45;3.88;;;19.60;57.40;;;;;;5063139;28;20475;-83
2022/04/28 11:09:06;;;;;;;7.97;4.22;;;20.70;55.90;;;;;;5063694;28;20021;-82
2022/04/28 11:11:43;;;;;;;6.50;3.50;;;21.70;55.90;;;;;;5069950;28;20032;-83
2022/04/28 11:14:09;;;;;;;8.98;3.95;;;23.10;52.50;;;;;;5070144;28;20020;-84
2022/04/28 11:16:35;;;;;;;8.60;3.70;;;24.10;51.80;;;;;;5070318;28;20017;-83
2022/04/28 11:19:03;;;;;;;8.38;3.70;;;24.00;48.40;;;;;;5086491;22;20422;-73
2022/04/28 11:21:29;;;;;;;7.85;4.35;;;24.30;47.70;;;;;;5077757;28;20035;-73
2022/04/28 11:23:57;;;;;;;11.07;4.28;;;23.80;43.60;;;;;;5077080;28;20020;-73
2022/04/28 11:26:26;;;;;;;14.10;4.88;;;23.30;44.90;;;;;;5070637;28;20447;-74
2022/04/28 11:28:52;;;;;;;9.50;4.10;;;22.00;47.70;;;;;;5076039;28;20028;-73
2022/04/28 11:31:19;;;;;;;9.73;3.97;;;21.00;51.80;;;;;;5070299;28;20029;-73
2022/04/28 11:33:50;;;;;;;7.72;5.13;;;20.90;55.00;;;;;;5070268;28;20477;-73
2022/04/28 11:36:28;;;;;;;9.05;5.30;;;19.90;53.40;;;;;;5069972;28;20012;-73
2022/04/28 11:39:00;;;;;;;8.02;4.70;;;19.20;58.40;;;;;;5069534;28;20036;-73
2022/04/28 11:41:39;;;;;;;8.55;4.60;;;19.10;58.30;;;;;;5069451;28;20015;-73
2022/04/28 11:44:07;;;;;;;12.70;5.50;;;18.90;58.50;;;;;;5068577;28;20358;-73
2022/04/28 11:46:42;;;;;;;7.65;4.43;;;18.60;59.80;;;;;;5070319;28;20009;-73
2022/04/28 11:49:08;;;;;;;8.45;4.70;;;18.60;62.20;;;;;;5071119;28;20110;-73
2022/04/28 11:51:35;;;;;;;7.82;4.88;;;18.70;59.50;;;;;;5073875;28;20028;-73
2022/04/28 11:54:02;;;;;;;9.02;4.60;;;19.00;58.30;;;;;;5074108;28;20020;-73
2022/04/28 11:56:31;;;;;;;12.13;5.07;;;19.50;58.30;;;;;;5073634;28;20045;-73
2022/04/28 11:59:00;;;;;;;6.85;4.85;;;20.10;55.20;;;;;;5072355;28;20368;-73
2022/04/28 12:01:30;;;;;;;11.25;4.88;;;20.00;56.20;;;;;;5073692;28;20025;-73
2022/04/28 12:03:58;;;;;;;10.05;5.35;;;21.00;56.50;;;;;;5074214;28;20028;-73
2022/04/28 12:06:25;;;;;;;8.88;4.97;;;21.20;54.10;;;;;;5073686;28;20021;-73
2022/04/28 12:14:22;;;;;;;11.00;5.10;;;20.70;52.80;;;;;;5073471;28;20043;-73
2022/04/28 12:14:34;;;;;;;9.68;4.78;;;20.50;56.80;;;;;;5073078;28;20162;-73
2022/04/28 12:19:57;;;;;;;8.13;5.03;;;20.20;55.40;;;;;;5099990;22;20043;-85
2022/04/28 12:22:28;;;;;;;13.77;5.45;;;20.50;55.60;;;;;;5082184;28;20024;-85
2022/04/28 12:24:54;;;;;;;14.52;5.40;;;20.00;53.50;;;;;;5072499;28;20054;-85
2022/04/28 12:27:20;;;;;;;8.23;5.63;;;20.10;54.60;;;;;;5081166;28;20027;-86
2022/04/28 12:29:55;;;;;;;8.07;5.00;;;20.60;54.20;;;;;;5077456;28;20024;-86
2022/04/28 12:32:25;;;;;;;8.10;5.57;;;20.40;54.90;;;;;;5061267;28;20516;-84
2022/04/28 12:35:03;;;;;;;8.55;5.05;;;19.00;55.80;;;;;;5062046;28;20054;-87
2022/04/28 12:37:29;;;;;;;7.93;4.50;;;19.00;58.50;;;;;;5066793;28;20023;-85
2022/04/28 12:40:00;;;;;;;10.27;4.93;;;18.70;58.20;;;;;;5071640;28;20111;-85
2022/04/28 12:42:44;;;;;;;10.80;5.55;;;18.50;60.00;;;;;;5070079;28;20025;-85
2022/04/28 12:45:14;;;;;;;11.40;4.63;;;18.20;60.20;;;;;;5067825;28;20020;-85
2022/04/28 12:47:42;;;;;;;10.23;5.07;;;18.60;60.90;;;;;;5060013;28;20104;-84
2022/04/28 12:50:24;;;;;;;8.45;5.18;;;18.10;61.50;;;;;;5066831;28;20017;-85
2022/04/28 12:52:51;;;;;;;13.02;4.82;;;18.30;61.90;;;;;;5075105;28;20556;-85
2022/04/28 12:55:21;;;;;;;10.48;4.57;;;18.70;62.40;;;;;;5066339;28;20107;-84
2022/04/28 12:57:48;;;;;;;10.27;5.25;;;18.60;62.40;;;;;;5070925;28;20023;-85
2022/04/28 13:00:17;;;;;;;11.82;5.25;;;18.70;61.50;;;;;;5053312;28;20031;-84
2022/04/28 13:02:50;;;;;;;10.95;5.55;;;19.00;61.10;;;;;;5065784;28;20052;-86
2022/04/28 13:05:18;;;;;;;11.60;4.50;;;18.90;61.40;;;;;;5069044;28;20029;-85
2022/04/28 13:07:44;;;;;;;11.38;5.00;;;19.00;59.30;;;;;;5061555;28;20048;-85
2022/04/28 13:10:16;;;;;;;10.48;5.60;;;18.40;62.70;;;;;;5065451;28;20016;-85
2022/04/28 13:12:42;;;;;;;11.10;5.28;;;18.80;60.30;;;;;;5071305;28;20119;-84
2022/04/28 13:15:08;;;;;;;9.07;5.10;;;18.90;58.70;;;;;;5078516;28;20115;-84
2022/04/28 13:17:36;;;;;;;12.23;5.40;;;19.00;58.90;;;;;;5066566;28;20381;-85
2022/04/28 13:20:04;;;;;;;10.25;5.70;;;18.40;58.30;;;;;;5094784;22;20131;-73
2022/04/28 13:22:30;;;;;;;11.35;5.03;;;18.60;62.10;;;;;;5072439;28;20052;-73